Time;durP1;ratioP1;P1;durP2;ratioP2;P2;SDS_P1;SDS_P2;PMS_P1;PMS_P2;Temp;Humidity;BMP_temperature;BMP_pressure;BME280_temperature;BME280_humidity;BME280_pressure;Samples;Min_cycle;Max_cycle;Signal;HPM_P1;HPM_P2
2024/04/02 00:01:55;;;;;;;5.85;1.02;;;9.50;99.90;;;;;;4932846;29;20032;-67
2024/04/02 00:04:20;;;;;;;3.92;1.10;;;9.50;99.90;;;;;;4932757;29;20077;-67
2024/04/02 00:06:47;;;;;;;4.88;1.00;;;9.50;99.90;;;;;;4933775;28;20019;-67
2024/04/02 00:09:17;;;;;;;3.33;1.15;;;9.50;99.90;;;;;;4934715;28;20043;-67
2024/04/02 00:11:43;;;;;;;3.42;1.15;;;9.50;99.90;;;;;;4932842;29;20015;-67
2024/04/02 00:14:08;;;;;;;5.70;1.30;;;9.40;99.90;;;;;;4933795;29;20051;-67
2024/04/02 00:16:34;;;;;;;6.10;1.30;;;9.50;99.90;;;;;;4937920;29;20429;-67
2024/04/02 00:19:02;;;;;;;4.35;1.10;;;9.40;99.90;;;;;;4934591;29;20181;-67
2024/04/02 00:21:30;;;;;;;11.77;1.27;;;9.50;99.90;;;;;;4936655;29;20467;-67
2024/04/02 00:23:55;;;;;;;2.55;1.00;;;9.50;99.90;;;;;;4934945;29;20407;-67
2024/04/02 00:26:21;;;;;;;2.00;1.17;;;9.50;99.90;;;;;;4935341;29;20036;-67
2024/04/02 00:28:49;;;;;;;6.38;1.10;;;9.50;99.90;;;;;;4938472;28;20482;-68
2024/04/02 00:31:15;;;;;;;4.03;1.25;;;9.50;99.90;;;;;;4943154;28;20138;-67
2024/04/02 00:33:41;;;;;;;2.28;1.05;;;9.50;99.90;;;;;;4935605;29;20462;-67
2024/04/02 00:36:07;;;;;;;3.00;1.25;;;9.60;99.90;;;;;;4936427;29;20060;-67
2024/04/02 00:38:33;;;;;;;6.03;1.27;;;9.50;99.90;;;;;;4942234;29;20020;-67
2024/04/02 00:41:02;;;;;;;4.22;1.30;;;9.50;99.90;;;;;;4933038;29;20036;-67
2024/04/02 00:43:28;;;;;;;5.20;1.00;;;9.40;99.90;;;;;;4934232;29;20068;-67
2024/04/02 00:45:53;;;;;;;3.75;1.20;;;9.40;99.90;;;;;;4936421;29;20441;-67
2024/04/02 00:48:20;;;;;;;2.35;1.00;;;9.50;99.90;;;;;;4936285;29;20047;-67
2024/04/02 00:50:47;;;;;;;5.22;1.27;;;9.50;99.90;;;;;;4935436;29;20019;-67
2024/04/02 00:53:14;;;;;;;4.07;1.40;;;9.40;99.90;;;;;;4938720;28;20016;-67
2024/04/02 00:55:43;;;;;;;5.07;1.20;;;9.40;99.90;;;;;;4940445;28;20065;-67
2024/04/02 00:58:09;;;;;;;4.40;1.10;;;9.40;99.90;;;;;;4930776;29;20031;-67
2024/04/02 01:00:36;;;;;;;3.95;1.20;;;9.40;99.90;;;;;;4933499;29;20039;-68
2024/04/02 01:03:03;;;;;;;2.65;1.00;;;9.30;99.90;;;;;;4933686;29;20395;-67
2024/04/02 01:05:29;;;;;;;6.80;1.27;;;9.30;99.90;;;;;;4933544;29;20055;-67
2024/04/02 01:07:54;;;;;;;4.30;1.30;;;9.20;99.90;;;;;;4937975;29;20054;-67
2024/04/02 01:10:20;;;;;;;2.08;0.90;;;9.20;99.90;;;;;;4931933;29;20024;-67
2024/04/02 01:12:46;;;;;;;4.75;1.00;;;9.10;99.90;;;;;;4935057;29;20349;-67
2024/04/02 01:15:11;;;;;;;4.18;1.40;;;9.10;99.90;;;;;;4934550;28;20016;-67
2024/04/02 01:17:37;;;;;;;3.58;1.20;;;9.00;99.90;;;;;;4923981;29;20054;-67
2024/04/02 01:20:03;;;;;;;3.35;1.00;;;9.00;99.90;;;;;;4934535;28;20374;-67
2024/04/02 01:22:30;;;;;;;3.40;1.05;;;8.90;99.90;;;;;;4933918;29;20039;-67
2024/04/02 01:24:59;;;;;;;6.32;1.27;;;8.90;99.90;;;;;;4938952;29;20047;-67
2024/04/02 01:27:26;;;;;;;2.95;1.20;;;8.80;99.90;;;;;;4934727;29;20046;-67
2024/04/02 01:29:52;;;;;;;3.03;1.00;;;8.70;99.90;;;;;;4934910;29;20028;-67
2024/04/02 01:32:17;;;;;;;3.08;1.10;;;8.70;99.90;;;;;;4934705;28;20023;-67
2024/04/02 01:34:43;;;;;;;5.85;1.15;;;8.60;99.90;;;;;;4935073;29;20705;-67
2024/04/02 01:37:08;;;;;;;4.57;1.30;;;8.60;99.90;;;;;;4935978;28;20077;-67
2024/04/02 01:39:34;;;;;;;6.15;1.13;;;8.60;99.90;;;;;;4934738;28;20028;-66
2024/04/02 01:42:00;;;;;;;5.50;1.20;;;8.60;99.90;;;;;;4935837;29;20102;-67
2024/04/02 01:44:25;;;;;;;3.85;1.10;;;8.60;99.90;;;;;;4935260;29;20114;-67
2024/04/02 01:46:51;;;;;;;5.30;1.10;;;8.50;99.90;;;;;;4937873;29;20514;-67
2024/04/02 01:49:16;;;;;;;3.97;1.30;;;8.50;99.90;;;;;;4936628;28;20034;-67
2024/04/02 01:51:44;;;;;;;5.20;1.27;;;8.50;99.90;;;;;;4935729;29;20495;-67
2024/04/02 01:54:09;;;;;;;5.88;1.20;;;8.40;99.90;;;;;;4936801;28;20502;-67
2024/04/02 01:56:35;;;;;;;4.13;1.23;;;8.50;99.90;;;;;;4936503;29;20145;-66
2024/04/02 01:59:00;;;;;;;3.63;0.93;;;8.60;99.90;;;;;;4937029;29;20081;-67
2024/04/02 02:01:26;;;;;;;5.13;1.40;;;8.70;99.90;;;;;;4934160;29;20083;-66
2024/04/02 02:03:52;;;;;;;3.13;1.00;;;8.70;99.90;;;;;;4937951;29;20089;-67
2024/04/02 02:06:17;;;;;;;3.50;1.15;;;8.70;99.90;;;;;;4939536;28;20081;-66
2024/04/02 02:08:43;;;;;;;4.07;1.40;;;8.80;99.90;;;;;;4937790;29;20031;-67
2024/04/02 02:11:11;;;;;;;4.32;1.10;;;8.70;99.90;;;;;;4933276;28;20486;-66
2024/04/02 02:13:39;;;;;;;3.17;1.25;;;8.60;99.90;;;;;;4931557;28;20069;-66
2024/04/02 02:16:05;;;;;;;8.02;1.20;;;8.70;99.90;;;;;;4936376;29;20023;-66
2024/04/02 02:18:31;;;;;;;4.35;1.20;;;8.70;99.90;;;;;;4931948;28;20501;-67
2024/04/02 02:20:58;;;;;;;3.85;1.17;;;8.80;99.90;;;;;;4931108;29;20375;-67
2024/04/02 02:23:25;;;;;;;4.28;1.27;;;8.70;99.90;;;;;;4933667;29;20642;-67
2024/04/02 02:25:51;;;;;;;3.70;1.02;;;8.90;99.90;;;;;;4933204;29;20047;-66
2024/04/02 02:28:17;;;;;;;2.45;1.00;;;8.80;99.90;;;;;;4932038;29;20070;-67
2024/04/02 02:30:42;;;;;;;5.65;1.30;;;8.80;99.90;;;;;;4933453;29;20529;-66
2024/04/02 02:33:08;;;;;;;3.75;1.20;;;8.90;99.90;;;;;;4931909;29;20034;-67
2024/04/02 02:35:34;;;;;;;6.00;1.40;;;8.90;99.90;;;;;;4933462;28;20028;-67
2024/04/02 02:38:02;;;;;;;3.20;1.00;;;8.90;99.90;;;;;;4932687;28;20031;-67
2024/04/02 02:40:31;;;;;;;5.82;1.30;;;8.90;99.90;;;;;;4932025;29;20039;-67
2024/04/02 02:42:57;;;;;;;4.05;1.10;;;8.90;99.90;;;;;;4934292;29;20064;-67
2024/04/02 02:45:24;;;;;;;5.22;1.27;;;8.90;99.90;;;;;;4933937;29;20062;-67
2024/04/02 02:47:49;;;;;;;4.25;0.90;;;8.90;99.90;;;;;;4935102;29;20478;-67
2024/04/02 02:50:18;;;;;;;4.50;1.10;;;8.90;99.90;;;;;;4934508;29;20055;-68
2024/04/02 02:52:44;;;;;;;3.03;1.10;;;8.90;99.90;;;;;;4934295;29;20460;-67
2024/04/02 02:55:10;;;;;;;5.18;1.10;;;8.80;99.90;;;;;;4936220;29;20050;-66
2024/04/02 02:57:35;;;;;;;6.28;1.27;;;8.90;99.90;;;;;;4934076;28;20417;-67
2024/04/02 03:00:01;;;;;;;3.78;1.10;;;8.90;99.90;;;;;;4937217;28;20125;-67
2024/04/02 03:02:26;;;;;;;3.20;1.10;;;8.80;99.90;;;;;;4935898;28;20038;-67
2024/04/02 03:04:52;;;;;;;6.10;1.63;;;8.80;99.90;;;;;;4938977;28;20032;-67
2024/04/02 03:07:18;;;;;;;3.10;1.10;;;8.80;99.90;;;;;;4942844;29;20035;-67
2024/04/02 03:09:44;;;;;;;5.07;1.30;;;8.70;99.90;;;;;;4940877;28;20642;-67
2024/04/02 03:12:09;;;;;;;3.83;1.27;;;8.60;99.90;;;;;;4943185;29;20031;-67
2024/04/02 03:14:35;;;;;;;3.15;1.08;;;8.60;99.90;;;;;;4940262;29;20392;-67
2024/04/02 03:17:03;;;;;;;6.30;1.20;;;8.70;99.90;;;;;;4940765;28;20039;-67
2024/04/02 03:19:29;;;;;;;3.20;1.13;;;8.70;99.90;;;;;;4942056;28;20407;-66
2024/04/02 03:21:54;;;;;;;2.85;1.00;;;8.70;99.90;;;;;;4934976;29;20038;-66
2024/04/02 03:24:20;;;;;;;1.70;0.90;;;8.70;99.90;;;;;;4938867;28;20037;-67
2024/04/02 03:26:46;;;;;;;6.63;1.35;;;8.70;99.90;;;;;;4942614;29;20038;-67
2024/04/02 03:29:12;;;;;;;1.48;0.80;;;8.80;99.90;;;;;;4941282;28;20390;-67
2024/04/02 03:31:38;;;;;;;3.72;1.20;;;8.80;99.90;;;;;;4939682;28;20050;-67
2024/04/02 03:34:03;;;;;;;5.00;1.20;;;8.80;99.90;;;;;;4943744;28;20106;-67
2024/04/02 03:36:29;;;;;;;7.00;1.35;;;8.80;99.90;;;;;;4942078;28;20047;-67
2024/04/02 03:38:55;;;;;;;5.28;1.27;;;8.80;99.90;;;;;;4942253;28;20417;-67
2024/04/02 03:41:21;;;;;;;3.58;1.27;;;8.80;99.90;;;;;;4940073;28;20043;-67
2024/04/02 03:43:48;;;;;;;5.75;1.52;;;8.80;99.90;;;;;;4942705;29;20037;-67
2024/04/02 03:46:14;;;;;;;12.23;1.23;;;8.80;99.90;;;;;;4940700;28;20031;-67
2024/04/02 03:48:40;;;;;;;3.35;1.20;;;8.70;99.90;;;;;;4941712;29;20376;-67
2024/04/02 03:51:05;;;;;;;3.83;0.90;;;8.70;99.90;;;;;;4941987;28;20142;-66
2024/04/02 03:53:31;;;;;;;7.68;1.63;;;8.70;99.90;;;;;;4940512;28;20031;-66
2024/04/02 03:56:04;;;;;;;6.22;1.25;;;8.70;99.90;;;;;;4939483;29;20535;-66
2024/04/02 03:58:30;;;;;;;5.22;1.30;;;8.70;99.90;;;;;;4942669;28;20081;-66
2024/04/02 04:00:56;;;;;;;4.60;1.30;;;8.70;99.90;;;;;;4939490;28;20493;-66
2024/04/02 04:03:23;;;;;;;4.32;1.33;;;8.70;99.90;;;;;;4938963;28;20059;-66
2024/04/02 04:05:58;;;;;;;4.53;1.30;;;8.70;99.90;;;;;;4942609;29;20593;-66
2024/04/02 04:08:26;;;;;;;3.55;1.20;;;8.60;99.90;;;;;;4935738;29;20040;-66
2024/04/02 04:10:52;;;;;;;9.38;1.52;;;8.70;99.90;;;;;;4936561;29;20040;-66
2024/04/02 04:13:17;;;;;;;3.95;1.33;;;8.60;99.90;;;;;;4943407;29;20395;-66
2024/04/02 04:15:53;;;;;;;5.15;1.33;;;8.60;99.90;;;;;;4945387;29;20028;-66
2024/04/02 04:18:23;;;;;;;4.63;1.50;;;8.60;99.90;;;;;;4937411;28;20734;-66
2024/04/02 04:20:56;;;;;;;5.60;1.40;;;8.60;99.90;;;;;;4941350;29;20040;-66
2024/04/02 04:23:22;;;;;;;4.63;1.52;;;8.50;99.90;;;;;;4930658;29;20429;-66
2024/04/02 04:26:02;;;;;;;3.47;1.38;;;8.50;99.90;;;;;;4935058;29;20032;-67
2024/04/02 04:28:29;;;;;;;5.30;1.40;;;8.50;99.90;;;;;;4937797;29;20032;-66
2024/04/02 04:30:59;;;;;;;6.30;1.60;;;8.60;99.90;;;;;;4942620;28;20035;-66
2024/04/02 04:33:26;;;;;;;4.00;1.25;;;8.60;99.90;;;;;;4935040;29;20074;-66
2024/04/02 04:35:53;;;;;;;7.38;1.85;;;8.60;99.90;;;;;;4935312;28;20046;-66
2024/04/02 04:38:21;;;;;;;1.20;0.73;;;8.60;99.90;;;;;;4932147;29;20058;-66
2024/04/02 04:40:49;;;;;;;5.85;2.08;;;8.60;99.90;;;;;;4932027;28;20060;-66
2024/04/02 04:43:16;;;;;;;5.10;1.42;;;8.60;99.90;;;;;;4932328;29;20027;-66
2024/04/02 04:46:01;;;;;;;6.13;1.58;;;8.60;99.90;;;;;;4933916;29;20051;-66
2024/04/02 04:48:30;;;;;;;4.03;1.40;;;8.60;99.90;;;;;;4934964;29;20094;-66
2024/04/02 04:50:56;;;;;;;4.35;1.38;;;8.70;99.90;;;;;;4938287;29;20031;-66
2024/04/02 04:53:22;;;;;;;5.93;1.60;;;8.60;99.90;;;;;;4934253;29;20111;-67
2024/04/02 04:55:47;;;;;;;4.25;1.20;;;8.70;99.90;;;;;;4931402;28;20114;-66
2024/04/02 04:58:13;;;;;;;5.30;2.10;;;8.70;99.90;;;;;;4928543;29;20470;-66
2024/04/02 05:00:39;;;;;;;5.07;1.52;;;8.70;99.90;;;;;;4936351;28;20040;-67
2024/04/02 05:03:05;;;;;;;8.02;1.73;;;8.80;99.90;;;;;;4931407;29;20050;-68
2024/04/02 05:05:31;;;;;;;5.47;1.55;;;8.70;99.90;;;;;;4935141;28;20024;-67
2024/04/02 05:08:14;;;;;;;7.78;1.58;;;8.80;99.90;;;;;;4932398;29;20042;-67
2024/04/02 05:10:39;;;;;;;5.30;1.63;;;8.70;99.90;;;;;;4935001;28;20085;-67
2024/04/02 05:13:06;;;;;;;5.30;1.55;;;8.70;99.90;;;;;;4931625;29;20023;-67
2024/04/02 05:15:32;;;;;;;5.15;1.80;;;8.70;99.90;;;;;;4934237;29;20031;-67
2024/04/02 05:17:58;;;;;;;5.38;1.48;;;8.80;99.90;;;;;;4928217;29;20044;-67
2024/04/02 05:20:23;;;;;;;4.15;1.23;;;8.70;99.90;;;;;;4934895;29;20126;-67
2024/04/02 05:22:52;;;;;;;3.83;1.25;;;8.70;99.90;;;;;;4928885;29;20111;-67
2024/04/02 05:25:17;;;;;;;7.47;1.67;;;8.80;99.90;;;;;;4937403;28;20058;-67
2024/04/02 05:27:43;;;;;;;9.15;1.90;;;8.70;99.90;;;;;;4929836;29;20109;-67
2024/04/02 05:30:09;;;;;;;5.28;1.48;;;8.70;99.90;;;;;;4947430;28;20683;-67
2024/04/02 05:32:35;;;;;;;6.43;1.45;;;8.70;99.90;;;;;;4933233;28;20028;-67
2024/04/02 05:35:02;;;;;;;7.13;1.42;;;8.80;99.90;;;;;;4930636;29;20023;-67
2024/04/02 05:37:28;;;;;;;5.93;1.75;;;8.80;99.90;;;;;;4934505;29;20019;-67
2024/04/02 05:39:56;;;;;;;3.85;1.40;;;8.80;99.90;;;;;;4931777;29;20039;-67
2024/04/02 05:42:22;;;;;;;3.80;1.63;;;8.90;99.90;;;;;;4933241;29;20050;-66
2024/04/02 05:44:47;;;;;;;5.55;1.42;;;8.90;99.90;;;;;;4940195;28;20481;-67
2024/04/02 05:47:13;;;;;;;8.93;2.13;;;8.70;99.90;;;;;;4934547;28;20039;-67
2024/04/02 05:49:39;;;;;;;4.22;1.73;;;8.60;99.90;;;;;;4939062;29;20047;-66
2024/04/02 05:52:05;;;;;;;7.93;2.00;;;8.40;99.90;;;;;;4930106;29;20027;-66
2024/04/02 05:54:31;;;;;;;9.00;2.00;;;8.30;99.90;;;;;;4939188;29;20066;-66
2024/04/02 05:56:57;;;;;;;8.60;2.25;;;8.20;99.90;;;;;;4938279;28;20458;-65
2024/04/02 05:59:22;;;;;;;5.65;2.13;;;8.10;99.90;;;;;;4935811;29;20035;-65
2024/04/02 06:01:48;;;;;;;8.88;2.22;;;8.10;99.90;;;;;;4936462;29;20031;-67
2024/04/02 06:04:16;;;;;;;6.30;2.13;;;8.10;99.90;;;;;;4936500;28;20028;-67
2024/04/02 06:06:41;;;;;;;10.13;2.80;;;8.00;99.90;;;;;;4931586;29;20461;-65
2024/04/02 06:09:07;;;;;;;8.95;2.53;;;8.00;99.90;;;;;;4937858;28;20122;-66
2024/04/02 06:11:33;;;;;;;7.93;2.67;;;8.10;99.90;;;;;;4929326;29;20074;-67
2024/04/02 06:13:59;;;;;;;9.95;2.90;;;8.00;99.90;;;;;;4927432;29;20167;-67
2024/04/02 06:16:24;;;;;;;8.35;2.58;;;8.10;99.90;;;;;;4935624;28;20028;-66
2024/04/02 06:18:50;;;;;;;5.28;2.10;;;8.10;99.90;;;;;;4938008;29;20055;-67
2024/04/02 06:21:17;;;;;;;6.10;1.90;;;8.10;99.90;;;;;;4939261;28;20035;-68
2024/04/02 06:23:46;;;;;;;10.05;2.50;;;8.20;99.90;;;;;;4937188;29;20042;-66
2024/04/02 06:26:14;;;;;;;8.63;2.05;;;8.20;99.90;;;;;;4932158;29;20027;-67
2024/04/02 06:28:40;;;;;;;9.88;2.53;;;8.20;99.90;;;;;;4933282;29;20043;-68
2024/04/02 06:31:06;;;;;;;7.22;2.30;;;8.20;99.90;;;;;;4939533;29;20081;-67
2024/04/02 06:33:31;;;;;;;9.98;2.97;;;8.30;99.90;;;;;;4937329;29;20449;-67
2024/04/02 06:35:59;;;;;;;8.43;2.70;;;8.20;99.90;;;;;;4939184;29;20090;-67
2024/04/02 06:38:25;;;;;;;10.30;2.78;;;8.20;99.90;;;;;;4938420;28;20034;-67
2024/04/02 06:40:50;;;;;;;9.90;2.50;;;8.20;99.90;;;;;;4937414;29;20032;-67
2024/04/02 06:43:16;;;;;;;7.43;2.45;;;8.30;99.90;;;;;;4938551;28;20027;-68
2024/04/02 06:45:42;;;;;;;10.02;2.80;;;8.30;99.90;;;;;;4937095;29;20443;-67
2024/04/02 06:48:07;;;;;;;8.35;2.42;;;8.40;99.90;;;;;;4941158;28;20039;-67
2024/04/02 06:50:33;;;;;;;9.90;2.90;;;8.40;99.90;;;;;;4935697;28;20038;-67
2024/04/02 06:52:59;;;;;;;8.85;2.78;;;8.50;99.90;;;;;;4939507;29;20374;-68
2024/04/02 06:55:28;;;;;;;10.98;2.72;;;8.60;99.90;;;;;;4938362;28;20084;-67
2024/04/02 06:57:54;;;;;;;8.20;2.05;;;8.60;99.90;;;;;;4938979;29;20480;-68
2024/04/02 07:00:20;;;;;;;11.05;2.50;;;8.70;99.90;;;;;;4938817;28;20070;-67
2024/04/02 07:02:45;;;;;;;9.07;2.22;;;8.80;99.90;;;;;;4934608;29;20435;-67
2024/04/02 07:05:11;;;;;;;5.10;1.95;;;8.80;99.90;;;;;;4939272;28;20463;-67
2024/04/02 07:07:37;;;;;;;5.63;1.80;;;8.90;99.90;;;;;;4940013;28;20028;-67
2024/04/02 07:10:05;;;;;;;6.88;2.13;;;9.00;99.90;;;;;;4937225;28;20028;-67
2024/04/02 07:12:30;;;;;;;6.82;2.10;;;9.10;99.90;;;;;;4937910;29;20118;-67
2024/04/02 07:14:56;;;;;;;8.55;2.22;;;9.30;99.90;;;;;;4934593;28;20169;-67
2024/04/02 07:17:22;;;;;;;5.32;1.70;;;9.40;99.90;;;;;;4937837;28;20562;-67
2024/04/02 07:19:47;;;;;;;8.40;2.33;;;9.50;99.90;;;;;;4936685;29;20036;-67
2024/04/02 07:22:13;;;;;;;8.07;2.35;;;9.50;99.90;;;;;;4939486;28;20106;-67
2024/04/02 07:24:38;;;;;;;9.68;2.03;;;9.60;99.90;;;;;;4936133;29;20054;-67
2024/04/02 07:27:06;;;;;;;10.23;2.40;;;9.60;99.90;;;;;;4940221;28;20031;-67
2024/04/02 07:29:32;;;;;;;9.32;1.95;;;9.70;99.90;;;;;;4935982;28;20032;-66
2024/04/02 07:31:57;;;;;;;7.32;1.95;;;9.70;99.90;;;;;;4938376;29;20030;-67
2024/04/02 07:34:23;;;;;;;6.10;1.45;;;9.80;99.90;;;;;;4936973;28;20024;-67
2024/04/02 07:36:49;;;;;;;6.53;1.90;;;9.90;99.90;;;;;;4938238;29;20372;-67
2024/04/02 07:39:14;;;;;;;7.88;2.25;;;9.90;99.90;;;;;;4937747;28;20031;-67
2024/04/02 07:41:40;;;;;;;8.60;2.10;;;10.00;99.90;;;;;;4939890;29;20390;-67
2024/04/02 07:44:05;;;;;;;6.63;1.80;;;10.20;99.90;;;;;;4940666;29;20043;-67
2024/04/02 07:46:31;;;;;;;7.93;2.30;;;10.20;99.90;;;;;;4934598;28;20038;-67
2024/04/02 07:48:56;;;;;;;7.30;1.90;;;10.30;99.90;;;;;;4939479;29;20562;-67
2024/04/02 07:51:22;;;;;;;9.45;2.13;;;10.30;99.90;;;;;;4936663;28;20023;-67
2024/04/02 07:53:48;;;;;;;6.38;1.50;;;10.30;99.90;;;;;;4939390;29;20051;-67
2024/04/02 07:56:13;;;;;;;7.43;1.85;;;10.50;99.90;;;;;;4940817;28;20028;-67
2024/04/02 07:58:40;;;;;;;10.85;2.72;;;10.50;99.90;;;;;;4939206;29;20035;-67
2024/04/02 08:01:07;;;;;;;7.80;2.00;;;10.50;99.90;;;;;;4935936;29;20027;-67
2024/04/02 08:03:32;;;;;;;7.68;2.30;;;10.50;99.90;;;;;;4938964;29;20028;-67
2024/04/02 08:05:58;;;;;;;7.43;1.65;;;10.40;99.90;;;;;;4942551;29;20031;-67
2024/04/02 08:08:24;;;;;;;9.95;2.20;;;10.30;99.90;;;;;;4939904;28;20631;-67
2024/04/02 08:10:49;;;;;;;8.35;1.90;;;10.20;99.90;;;;;;4941490;29;20120;-67
2024/04/02 08:13:15;;;;;;;8.98;1.63;;;10.30;99.90;;;;;;4939975;28;20019;-66
2024/04/02 08:15:41;;;;;;;7.47;1.85;;;10.30;99.90;;;;;;4942682;29;20077;-67
2024/04/02 08:18:09;;;;;;;11.80;1.98;;;10.30;99.90;;;;;;4939957;29;20122;-66
2024/04/02 08:20:34;;;;;;;9.27;1.65;;;10.30;99.90;;;;;;4940799;28;20035;-67
2024/04/02 08:23:00;;;;;;;10.25;2.08;;;10.20;99.90;;;;;;4938253;29;20043;-67
2024/04/02 08:25:26;;;;;;;8.20;1.70;;;10.30;99.90;;;;;;4941600;29;20442;-67
2024/04/02 08:27:52;;;;;;;8.23;1.77;;;10.30;99.90;;;;;;4938738;28;20028;-67
2024/04/02 08:30:17;;;;;;;7.90;1.80;;;10.30;99.90;;;;;;4944345;28;20610;-67
2024/04/02 08:32:43;;;;;;;6.00;1.48;;;10.40;99.90;;;;;;4937938;28;20023;-67
2024/04/02 08:35:09;;;;;;;9.40;1.70;;;10.40;99.90;;;;;;4940295;28;20030;-67
2024/04/02 08:37:36;;;;;;;8.82;1.60;;;10.40;99.90;;;;;;4937011;29;20074;-67
2024/04/02 08:40:04;;;;;;;9.73;1.52;;;10.50;99.90;;;;;;4943412;29;20490;-67
2024/04/02 08:42:30;;;;;;;10.85;1.67;;;10.50;99.90;;;;;;4938234;29;20039;-67
2024/04/02 08:44:57;;;;;;;11.73;1.95;;;10.50;99.90;;;;;;4942479;29;20035;-67
2024/04/02 08:47:25;;;;;;;9.02;1.80;;;10.70;99.90;;;;;;4936910;28;20139;-67
2024/04/02 08:49:52;;;;;;;8.18;1.88;;;10.70;99.90;;;;;;4936209;28;20027;-67
2024/04/02 08:52:17;;;;;;;8.27;1.70;;;10.70;99.90;;;;;;4941522;29;20027;-67
2024/04/02 08:54:43;;;;;;;7.38;1.50;;;10.60;99.90;;;;;;4938663;28;20485;-67
2024/04/02 08:57:09;;;;;;;7.13;1.90;;;10.70;99.90;;;;;;4942785;29;20429;-67
2024/04/02 08:59:39;;;;;;;7.45;1.42;;;10.60;99.90;;;;;;4939085;29;20070;-67
2024/04/02 09:02:09;;;;;;;11.35;2.17;;;10.50;99.90;;;;;;4937738;28;20074;-67
2024/04/02 09:04:35;;;;;;;12.73;2.03;;;10.50;99.90;;;;;;4939051;29;20036;-67
2024/04/02 09:07:02;;;;;;;5.93;1.60;;;10.50;99.90;;;;;;4942057;28;20027;-67
2024/04/02 09:09:29;;;;;;;6.68;1.83;;;10.50;99.90;;;;;;4937153;29;20031;-67
2024/04/02 09:11:55;;;;;;;7.78;1.15;;;10.60;99.90;;;;;;4934846;29;20028;-67
2024/04/02 09:14:22;;;;;;;5.93;1.30;;;10.60;99.90;;;;;;4941718;29;20491;-67
2024/04/02 09:16:48;;;;;;;10.20;1.67;;;10.70;99.90;;;;;;4937207;28;20072;-67
2024/04/02 09:19:14;;;;;;;8.65;1.85;;;10.90;99.90;;;;;;4939945;29;20135;-67
2024/04/02 09:21:40;;;;;;;6.50;1.58;;;11.10;99.90;;;;;;4938242;28;20441;-67
2024/04/02 09:24:08;;;;;;;8.57;1.50;;;11.20;99.90;;;;;;4936610;29;20562;-67
2024/04/02 09:26:33;;;;;;;6.53;1.30;;;11.40;99.90;;;;;;4937352;29;20430;-68
2024/04/02 09:29:02;;;;;;;11.15;1.80;;;11.40;99.90;;;;;;4941154;28;20114;-67
2024/04/02 09:31:28;;;;;;;8.77;1.58;;;11.40;99.90;;;;;;4938238;29;20113;-68
2024/04/02 09:33:58;;;;;;;4.47;1.10;;;11.40;99.90;;;;;;4940212;28;20127;-68
2024/04/02 09:36:39;;;;;;;4.05;1.20;;;11.40;99.90;;;;;;4933232;29;20024;-68
2024/04/02 09:39:08;;;;;;;7.75;1.52;;;11.30;99.90;;;;;;4936834;29;20039;-67
2024/04/02 09:41:38;;;;;;;7.38;1.50;;;11.20;99.90;;;;;;4939792;28;20510;-67
2024/04/02 09:44:08;;;;;;;4.65;1.30;;;11.20;99.90;;;;;;4939081;29;20035;-67
2024/04/02 09:46:37;;;;;;;;;;;11.20;99.90;;;;;;4937460;28;20439;-67
2024/04/02 09:49:03;;;;;;;5.60;1.27;;;11.10;99.90;;;;;;4939133;28;19914;-67
2024/04/02 09:51:30;;;;;;;4.90;1.25;;;10.90;99.90;;;;;;4936994;29;20122;-66
2024/04/02 09:53:56;;;;;;;6.93;1.48;;;10.70;99.90;;;;;;4941358;28;20379;-66
2024/04/02 09:56:26;;;;;;;8.07;1.70;;;10.70;99.90;;;;;;4932492;29;20031;-67
2024/04/02 09:58:51;;;;;;;7.30;1.60;;;10.70;99.90;;;;;;4932127;28;20028;-66
2024/04/02 10:01:24;;;;;;;9.45;1.70;;;10.70;99.90;;;;;;4938200;29;20027;-66
2024/04/02 10:03:56;;;;;;;5.03;1.58;;;10.90;99.90;;;;;;4936859;29;20651;-66
2024/04/02 10:06:27;;;;;;;9.90;1.77;;;10.90;99.90;;;;;;4937448;29;20367;-66
2024/04/02 10:08:59;;;;;;;9.13;1.40;;;11.10;99.90;;;;;;4933660;29;20769;-66
2024/04/02 10:11:47;;;;;;;7.38;1.55;;;11.10;99.90;;;;;;4933183;29;20031;-66
2024/04/02 10:14:22;;;;;;;7.38;1.35;;;11.20;99.90;;;;;;4937291;28;20752;-66
2024/04/02 10:16:48;;;;;;;5.90;1.67;;;11.10;99.90;;;;;;4940995;29;20452;-67
2024/04/02 10:19:33;;;;;;;3.90;1.23;;;11.10;99.90;;;;;;4938283;29;20045;-66
2024/04/02 10:22:01;;;;;;;5.50;1.38;;;11.20;99.90;;;;;;4933393;29;20127;-66
2024/04/02 10:24:27;;;;;;;5.90;1.30;;;11.40;99.90;;;;;;4936583;29;20028;-67
2024/04/02 10:26:56;;;;;;;5.65;1.30;;;11.50;99.90;;;;;;4938809;28;20030;-66
2024/04/02 10:29:31;;;;;;;6.90;1.70;;;11.50;99.90;;;;;;4934135;29;20028;-67
2024/04/02 10:31:57;;;;;;;8.82;1.48;;;11.50;99.90;;;;;;4935423;29;20070;-66
2024/04/02 10:34:29;;;;;;;4.15;1.17;;;11.40;99.90;;;;;;4940644;28;20043;-66
2024/04/02 10:36:55;;;;;;;5.05;1.45;;;11.40;99.90;;;;;;4941328;29;20023;-66
2024/04/02 10:39:21;;;;;;;4.38;1.30;;;11.40;99.90;;;;;;4935970;29;20667;-66
2024/04/02 10:41:47;;;;;;;5.45;1.30;;;11.60;99.90;;;;;;4940181;29;20039;-66
2024/04/02 10:44:17;;;;;;;7.47;1.48;;;11.80;99.90;;;;;;4936585;28;20038;-67
2024/04/02 10:46:43;;;;;;;6.80;1.33;;;12.10;99.90;;;;;;4937231;28;20486;-67
2024/04/02 10:49:09;;;;;;;6.65;1.40;;;12.40;99.90;;;;;;4939083;29;20028;-67
2024/04/02 10:51:34;;;;;;;5.57;1.00;;;12.50;99.90;;;;;;4936521;28;20043;-67
2024/04/02 10:54:00;;;;;;;5.05;1.30;;;12.30;99.90;;;;;;4936902;29;20030;-67
2024/04/02 10:56:28;;;;;;;4.07;1.10;;;12.20;99.90;;;;;;4939497;29;20027;-67
2024/04/02 10:58:54;;;;;;;5.57;1.00;;;12.10;99.90;;;;;;4935686;29;20371;-67
2024/04/02 11:01:21;;;;;;;6.72;1.60;;;12.00;99.90;;;;;;4937847;28;20066;-67
2024/04/02 11:03:51;;;;;;;1.25;0.80;;;11.80;99.90;;;;;;4932017;29;20070;-67
2024/04/02 11:06:17;;;;;;;5.85;1.10;;;11.80;99.90;;;;;;4932864;29;20038;-67
2024/04/02 11:08:49;;;;;;;3.35;0.88;;;11.90;99.90;;;;;;4936598;28;20158;-67
2024/04/02 11:11:19;;;;;;;5.72;1.10;;;12.00;99.90;;;;;;4933030;29;20028;-67
2024/04/02 11:13:45;;;;;;;3.65;1.30;;;12.20;99.90;;;;;;4928354;29;20502;-67
2024/04/02 11:16:10;;;;;;;6.15;1.10;;;12.50;99.90;;;;;;4939426;29;20027;-67
2024/04/02 11:18:36;;;;;;;4.05;0.95;;;12.90;99.90;;;;;;4937051;28;20039;-67
2024/04/02 11:21:02;;;;;;;5.20;1.55;;;13.60;99.90;;;;;;4937017;29;20169;-67
2024/04/02 11:26:22;;;;;;;4.80;1.10;;;14.70;99.90;;;;;;4941734;29;20042;-67
2024/04/02 11:28:47;;;;;;;4.50;1.20;;;14.90;99.90;;;;;;4935921;29;20039;-67
2024/04/02 11:31:14;;;;;;;3.15;1.00;;;14.70;99.90;;;;;;4934040;29;20042;-67
2024/04/02 11:33:41;;;;;;;4.75;1.02;;;14.30;99.90;;;;;;4939124;29;20039;-67
2024/04/02 11:36:07;;;;;;;4.90;1.05;;;14.40;99.90;;;;;;4942391;29;20024;-67
2024/04/02 11:38:34;;;;;;;6.00;1.10;;;14.80;99.90;;;;;;4939568;28;20081;-67
2024/04/02 11:41:02;;;;;;;4.63;1.10;;;15.20;99.90;;;;;;4939339;28;20031;-67
2024/04/02 11:43:28;;;;;;;5.32;1.13;;;15.80;99.90;;;;;;4939275;29;20503;-67
2024/04/02 11:45:54;;;;;;;4.70;0.98;;;16.70;99.40;;;;;;4939844;28;20113;-67
2024/04/02 11:48:20;;;;;;;4.28;1.25;;;15.70;99.90;;;;;;4940200;29;20115;-67
2024/04/02 11:50:46;;;;;;;3.50;0.93;;;15.00;99.90;;;;;;4941245;28;20091;-67
2024/04/02 11:53:14;;;;;;;5.25;0.98;;;14.40;99.90;;;;;;4936338;29;20111;-67
2024/04/02 11:55:42;;;;;;;4.53;1.00;;;14.10;99.90;;;;;;4942399;29;20032;-68
2024/04/02 12:00:53;;;;;;;1.95;0.73;;;13.90;99.90;;;;;;4940870;29;20029;-68
2024/04/02 12:03:22;;;;;;;5.80;1.30;;;14.00;99.90;;;;;;4940939;28;20039;-68
2024/04/02 12:05:50;;;;;;;4.72;1.02;;;13.70;99.90;;;;;;4938097;29;20028;-68
2024/04/02 12:08:16;;;;;;;4.40;1.40;;;13.50;99.90;;;;;;4942596;28;20485;-68
2024/04/02 12:10:42;;;;;;;5.05;1.08;;;13.30;99.90;;;;;;4939133;29;20066;-69
2024/04/02 12:13:07;;;;;;;3.38;1.10;;;13.10;99.90;;;;;;4940960;29;20043;-68
2024/04/02 12:15:35;;;;;;;14.50;1.40;;;13.10;99.90;;;;;;4939697;28;20098;-68
2024/04/02 12:18:01;;;;;;;7.28;1.40;;;12.90;99.90;;;;;;4939228;29;20078;-68
2024/04/02 12:20:27;;;;;;;9.38;1.33;;;12.50;99.90;;;;;;4938698;28;20141;-68
2024/04/02 12:22:52;;;;;;;5.97;1.20;;;12.20;99.90;;;;;;4938639;29;20451;-68
2024/04/02 12:25:18;;;;;;;2.70;0.88;;;12.30;99.90;;;;;;4941397;28;20067;-68
2024/04/02 12:27:44;;;;;;;4.72;1.20;;;12.80;99.90;;;;;;4938696;29;20161;-69
2024/04/02 12:30:12;;;;;;;4.88;1.13;;;13.40;99.90;;;;;;4942247;28;20044;-68
2024/04/02 12:32:40;;;;;;;1.58;0.70;;;13.80;99.90;;;;;;4936493;29;20108;-68
2024/04/02 12:35:05;;;;;;;3.38;0.98;;;13.70;99.90;;;;;;4939635;28;20035;-68
2024/04/02 12:37:31;;;;;;;3.55;1.52;;;13.30;99.90;;;;;;4939485;29;20035;-68
2024/04/02 12:39:57;;;;;;;6.07;1.38;;;12.90;99.90;;;;;;4938769;29;20039;-67
2024/04/02 12:42:23;;;;;;;1.92;0.80;;;12.50;99.90;;;;;;4939325;29;20561;-67
2024/04/02 12:44:48;;;;;;;4.65;1.00;;;12.40;99.90;;;;;;4937950;29;20121;-67
2024/04/02 12:47:15;;;;;;;3.05;0.95;;;12.50;99.90;;;;;;4940599;28;20058;-67
2024/04/02 12:49:42;;;;;;;2.08;0.90;;;12.80;99.90;;;;;;4938473;29;20032;-67
2024/04/02 12:52:08;;;;;;;3.08;1.00;;;12.50;99.90;;;;;;4934595;29;20383;-68
2024/04/02 12:54:34;;;;;;;3.25;0.95;;;12.40;99.90;;;;;;4941847;29;20031;-67
2024/04/02 12:57:00;;;;;;;4.65;1.20;;;12.30;99.90;;;;;;4937851;28;20024;-67